Terminal Aerodrome Forecast
Issued by NWS

Home | Current Version | Previous Version | Text Only | Print | Product List | Glossary On
Versions: 1 2 3 4 5 6 7 8 9 10 11 12 13 14 15 16 17 18 19 20 21 22 23 24 25 26 27 28
000
FTUS46 KLOX 211748
TAFBUR
TAF
KBUR 211748Z 2118/2218 14007KT P6SM SCT016 BKN025 OVC030
     FM212000 17012KT P6SM SCT025 SCT040
     FM220300 17007KT P6SM SCT040
     FM220700 VRB03KT P6SM SKC=

USA.gov is the U.S. government's official web portal to all federal, state and local government web resources and services.